Terminal Aerodrome Forecast
Issued by NWS Sterling, VA

Current Version | Previous Version | Graphics & Text | Print | Product List | Glossary On
Versions: 1 2 3 4 5 6 7 8 9 10 11 12 13 14 15 16 17 18 19 20 21 22
131
FTUS41 KLWX 251934 AAA
TAFDCA
TAF AMD
KDCA 251934Z 2520/2618 19014G21KT P6SM BKN040
      TEMPO 2520/2521 22020G35KT 2SM TSRA BKN030CB
     FM252100 27012G19KT 4SM -SHRA VCTS OVC030CB
     FM252300 31012KT P6SM BKN060
     FM260100 30017G34KT P6SM SCT100
     FM260600 30014G24KT P6SM FEW040
     FM261700 29012G22KT P6SM FEW050=

USA.gov is the U.S. government's official web portal to all federal, state and local government web resources and services.